Airfield :







YOU CAN JOIN US ON...

 
LOGIN :

Register | Disclaimer

   EN    FR    IT 

 









Legend :    VFR   Marginal VFR   IFR   Intensive IFR   Very Intensive IFR
Visi :
Ceiling :
>= 8 km
>= 3000ft
5 to 8 km
1000 to 3000 ft
1500m to 5 km
500 to 1000 ft
800 to 1500m
200 to 500 ft
< 800m
< 200 ft
Symbols :   Thunderstorms  Fog  Heavy snow  Heavy precipitations  Wind > 20 kt






- Airport Elevation : 118 ft
- IATA code : YUL


CYUL - Montréal - Pierre-Elliott-Trudeau Int.

CURRENT METAR :
  • 121300Z 26005KT 30SM FEW030 FEW250 M10/M16 A3061 RMK CU1CI1 CU TR SLP371

EXPIRED METARs :
  • 121200Z 27012KT 15SM FEW040 FEW250 M09/M16 A3058 RMK SC1CI1 SC TR CI TR SLP359
  • 121100Z 28016G22KT 15SM SKC M09/M16 A3054 RMK SLP345

TAF TAF CYUL
Valid from the 12 at 12:00 until the 13 at 12:00 UTC


121138Z 1212/1312 26012KT P6SM FEW050
FM121700 25010KT P6SM SCT040
FM122100 21006KT P6SM BKN120 BKN240
FM130200 15010KT P6SM OVC100 RMK NXT FCST BY 121500Z
ATIS : ENG : +1 514-633-3037 FRA : +1 514-633-3034



MET'MAP, your aeronautical weather chart ! - Copyright ORBIFLY December 2007 - Disclaimer

ORBIFLY MET'MAP TEAM :

Programming & Development : Alexandra Zaïnal
Concept & original design : Baudouin d'Aumeries
Assistance for programming : Marc-Olivier Méhu
Technical & hardware support : Manuel Goepfert

Contact : metmap@orbifly.com




SOURCES & CREDITS :

   NOAA